Time;durP1;ratioP1;P1;durP2;ratioP2;P2;SDS_P1;SDS_P2;PMS_P1;PMS_P2;Temp;Humidity;BMP_temperature;BMP_pressure;BME280_temperature;BME280_humidity;BME280_pressure;Samples;Min_cycle;Max_cycle;Signal;HPM_P1;HPM_P2
2022/11/25 00:04:10;;;;;;;;;;;2.70;99.90;;;1.43;100.00;95673.97;10506005;28;2769;-74
2022/11/25 00:09:13;;;;;;;;;;;2.70;99.90;;;1.34;100.00;95681.41;10496439;28;2785;-72
2022/11/25 00:14:16;;;;;;;;;;;2.70;99.90;;;1.35;100.00;95684.84;10506906;28;2770;-72
2022/11/25 00:19:19;;;;;;;;;;;2.70;99.90;;;1.39;100.00;95686.03;10500791;28;2780;-73
2022/11/25 00:24:22;;;;;;;;;;;2.70;99.90;;;1.40;100.00;95678.88;10509964;28;2777;-71
2022/11/25 00:29:25;;;;;;;;;;;2.70;99.90;;;1.28;100.00;95676.16;10504382;28;2798;-73
2022/11/25 00:34:27;;;;;;;;;;;2.70;99.90;;;1.22;100.00;95669.09;10510327;28;2743;-74
2022/11/25 00:39:30;;;;;;;;;;;2.60;99.90;;;1.13;100.00;95676.47;10508976;28;2757;-74
2022/11/25 00:44:36;;;;;;;;;;;2.60;99.90;;;1.05;100.00;95677.56;10512004;28;2779;-76
2022/11/25 00:49:40;;;;;;;;;;;2.40;99.90;;;1.02;100.00;95674.56;10517170;28;2773;-74
2022/11/25 00:54:43;;;;;;;;;;;2.40;99.90;;;1.00;100.00;95676.59;10527463;28;2874;-72
2022/11/25 00:59:46;;;;;;;;;;;2.30;99.90;;;1.00;100.00;95677.41;10523585;28;2708;-73
2022/11/25 01:04:49;;;;;;;;;;;2.30;99.90;;;1.05;100.00;95669.63;10530760;28;2801;-73
2022/11/25 01:09:53;;;;;;;;;;;2.30;99.90;;;0.99;100.00;95669.69;10502198;28;2855;-76
2022/11/25 01:14:56;;;;;;;;;;;2.30;99.90;;;0.99;100.00;95665.19;10509096;28;2728;-72
2022/11/25 01:19:59;;;;;;;;;;;2.20;99.90;;;1.02;100.00;95671.91;10518608;28;2730;-72
2022/11/25 01:25:03;;;;;;;;;;;2.30;99.90;;;1.11;100.00;95649.41;10530354;28;2755;-72
2022/11/25 01:30:07;;;;;;;;;;;2.30;99.90;;;0.81;100.00;95657.19;10521966;28;3122;-72
2022/11/25 01:35:10;;;;;;;;;;;2.20;99.90;;;0.73;100.00;95665.41;10518735;28;2775;-72
2022/11/25 01:40:13;;;;;;;;;;;;;;;0.64;100.00;95666.69;10515310;28;2750;-73
2022/11/25 01:45:17;;;;;;;;;;;;;;;0.63;100.00;95671.16;10518235;28;2905;-74
2022/11/25 01:50:20;;;;;;;;;;;1.20;99.90;;;0.77;100.00;95671.88;10515633;28;2659;-74
2022/11/25 01:55:22;;;;;;;;;;;1.80;99.90;;;0.94;100.00;95661.56;10523618;28;2690;-76
2022/11/25 02:00:25;;;;;;;;;;;2.00;99.90;;;0.91;100.00;95662.81;10500636;28;2769;-72
2022/11/25 02:05:28;;;;;;;;;;;2.00;99.90;;;0.84;100.00;95662.06;10515641;28;2899;-73
2022/11/25 02:10:35;;;;;;;;;;;1.90;99.90;;;0.89;100.00;95656.94;10518093;28;2747;-73
2022/11/25 02:15:38;;;;;;;;;;;2.00;99.90;;;0.85;100.00;95647.81;10519644;28;2781;-72
2022/11/25 02:20:41;;;;;;;;;;;2.00;99.90;;;0.96;100.00;95654.25;10510366;28;2773;-73
2022/11/25 02:25:43;;;;;;;;;;;2.00;99.90;;;0.93;100.00;95654.66;10508630;28;3254;-74
2022/11/25 02:30:46;;;;;;;;;;;2.00;99.90;;;1.04;100.00;95652.13;10522216;28;2740;-73
2022/11/25 02:35:50;;;;;;;;;;;2.10;99.90;;;1.06;100.00;95650.06;10518164;28;2864;-71
2022/11/25 02:40:53;;;;;;;;;;;2.20;99.90;;;1.10;100.00;95654.94;10516469;28;2759;-73
2022/11/25 02:45:55;;;;;;;;;;;2.10;99.90;;;1.11;100.00;95653.91;10516549;28;3109;-74
2022/11/25 02:50:58;;;;;;;;;;;2.20;99.90;;;1.07;100.00;95656.97;10505340;28;2740;-72
2022/11/25 02:56:01;;;;;;;;;;;2.10;99.90;;;1.00;100.00;95656.22;10507409;28;2832;-71
2022/11/25 03:01:04;;;;;;;;;;;2.10;99.90;;;1.07;100.00;95656.97;10515936;28;2936;-71
2022/11/25 03:06:06;;;;;;;;;;;2.10;99.90;;;1.12;100.00;95663.47;10511157;28;3090;-72
2022/11/25 03:11:10;;;;;;;;;;;2.10;99.90;;;1.11;100.00;95656.56;10515930;28;2792;-70
2022/11/25 03:16:12;;;;;;;;;;;2.10;99.90;;;1.16;100.00;95654.06;10514746;28;2685;-72
2022/11/25 03:21:15;;;;;;;;;;;2.20;99.90;;;1.17;100.00;95645.09;10504846;28;2793;-72
2022/11/25 03:26:18;;;;;;;;;;;2.20;99.90;;;1.19;100.00;95650.97;10510149;28;3150;-73
2022/11/25 03:31:20;;;;;;;;;;;2.30;99.90;;;1.34;100.00;95648.81;10511346;28;2778;-72
2022/11/25 03:36:23;;;;;;;;;;;2.30;99.90;;;1.31;100.00;95641.28;10496550;28;2886;-76
2022/11/25 03:41:35;;;;;;;;;;;2.40;99.90;;;1.28;100.00;95647.03;10516616;28;2781;-74
2022/11/25 03:46:38;;;;;;;;;;;2.40;99.90;;;1.27;100.00;95655.97;10515627;28;2784;-70
2022/11/25 03:51:41;;;;;;;;;;;2.40;99.90;;;1.19;100.00;95651.78;10507773;28;2722;-73
2022/11/25 03:56:46;;;;;;;;;;;2.20;99.90;;;1.24;100.00;95651.94;10520246;28;2708;-73
2022/11/25 04:01:48;;;;;;;;;;;2.30;99.90;;;1.25;100.00;95650.91;10505970;28;2871;-72
2022/11/25 04:06:51;;;;;;;;;;;2.20;99.90;;;1.28;100.00;95662.94;10509728;28;2792;-72
2022/11/25 04:17:14;;;;;;;;;;;2.30;99.90;;;1.31;100.00;95665.94;10507170;28;2862;-72
2022/11/25 04:22:17;;;;;;;;;;;2.30;99.90;;;1.28;100.00;95668.22;10500850;28;2732;-73
2022/11/25 04:27:19;;;;;;;;;;;2.30;99.90;;;1.32;100.00;95672.03;10506642;28;2709;-73
2022/11/25 04:32:22;;;;;;;;;;;2.30;99.90;;;1.21;100.00;95667.44;10503207;28;2777;-78
2022/11/25 04:37:25;;;;;;;;;;;2.30;99.90;;;1.29;100.00;95680.44;10527979;28;2851;-78
2022/11/25 04:42:35;;;;;;;;;;;2.30;99.90;;;1.32;100.00;95686.09;10506472;28;2661;-73
2022/11/25 04:47:37;;;;;;;;;;;2.30;99.90;;;1.26;100.00;95686.16;10506095;28;2839;-71
2022/11/25 04:52:40;;;;;;;;;;;2.20;99.90;;;1.27;100.00;95687.75;10517551;28;2772;-72
2022/11/25 04:57:43;;;;;;;;;;;2.30;99.90;;;1.30;100.00;95676.75;10503967;28;2757;-71
2022/11/25 05:02:45;;;;;;;;;;;2.30;99.90;;;1.33;100.00;95687.69;10496341;28;2709;-71
2022/11/25 05:07:48;;;;;;;;;;;2.10;99.90;;;1.31;100.00;95683.66;10509825;28;2768;-73
2022/11/25 05:12:51;;;;;;;;;;;2.30;99.90;;;1.47;100.00;95677.81;10505229;28;2704;-73
2022/11/25 05:17:56;;;;;;;;;;;2.50;99.90;;;1.43;100.00;95673.97;10514056;28;2785;-72
2022/11/25 05:22:59;;;;;;;;;;;2.40;99.90;;;1.33;100.00;95678.94;10507944;28;2776;-74
2022/11/25 05:28:02;;;;;;;;;;;2.50;99.90;;;1.38;100.00;95687.06;10510148;28;2670;-73
2022/11/25 05:33:05;;;;;;;;;;;;;;;1.34;100.00;95686.69;10514233;28;2717;-73
2022/11/25 05:38:08;;;;;;;;;;;;;;;1.38;100.00;95684.41;10513652;28;2781;-72
2022/11/25 05:43:14;;;;;;;;;;;;;;;1.41;100.00;95683.19;10522094;28;2788;-73
2022/11/25 05:48:17;;;;;;;;;;;;;;;1.38;100.00;95683.59;10522376;28;2791;-73
2022/11/25 05:53:20;;;;;;;;;;;;;;;1.45;100.00;95684.34;10525402;28;2848;-73
2022/11/25 05:58:23;;;;;;;;;;;;;;;1.46;100.00;95696.56;10516087;28;2798;-72
2022/11/25 06:03:27;;;;;;;;;;;;;;;1.38;100.00;95708.25;10514535;28;2738;-77
2022/11/25 06:08:29;;;;;;;;;;;2.40;99.90;;;1.35;100.00;95706.03;10507020;28;2755;-76
2022/11/25 06:13:33;;;;;;;;;;;2.40;99.90;;;1.40;100.00;95695.63;10512058;28;2773;-77
2022/11/25 06:18:36;;;;;;;;;;;2.40;99.90;;;1.53;100.00;95687.53;10510015;28;2824;-77
2022/11/25 06:23:39;;;;;;;;;;;2.60;99.90;;;1.57;100.00;95691.34;10515374;28;2841;-77
2022/11/25 06:28:41;;;;;;;;;;;2.60;99.90;;;1.70;100.00;95681.66;10527551;28;2725;-75
2022/11/25 06:33:44;;;;;;;;;;;2.70;99.90;;;1.78;100.00;95681.34;10523470;28;2731;-74
2022/11/25 06:38:47;;;;;;;;;;;;;;;1.86;100.00;95681.88;10518219;28;2805;-76
2022/11/25 06:43:51;;;;;;;;;;;;;;;1.93;100.00;95681.00;10501094;28;2757;-77
2022/11/25 06:49:00;;;;;;;;;;;;;;;1.91;100.00;95681.22;10505178;28;2824;-76
2022/11/25 06:54:05;;;;;;;;;;;;;;;1.89;100.00;95688.56;10519717;28;2866;-76
2022/11/25 06:59:12;;;;;;;;;;;;;;;1.87;100.00;95682.69;10523113;28;2773;-76
2022/11/25 07:04:15;;;;;;;;;;;;;;;2.01;100.00;95684.16;10522998;28;2608;-76
2022/11/25 07:09:19;;;;;;;;;;;;;;;2.23;100.00;95675.72;10520838;28;3090;-74
2022/11/25 07:14:23;;;;;;;;;;;;;;;2.39;100.00;95680.44;10507567;28;2786;-75
2022/11/25 07:19:32;;;;;;;;;;;;;;;2.51;100.00;95683.94;10516604;27;2861;-75
2022/11/25 07:24:35;;;;;;;;;;;;;;;2.68;100.00;95689.44;10511677;28;2777;-75
2022/11/25 07:29:39;;;;;;;;;;;;;;;2.80;100.00;95692.09;10519370;28;2752;-76
2022/11/25 07:35:02;;;;;;;;;;;;;;;2.98;100.00;95702.66;10515074;28;2756;-75
2022/11/25 07:40:06;;;;;;;;;;;;;;;3.04;100.00;95690.31;10507949;28;2797;-78
2022/11/25 07:45:10;;;;;;;;;;;;;;;3.13;100.00;95692.44;10508132;28;2125;-78
2022/11/25 07:50:13;;;;;;;;;;;;;;;3.29;100.00;95695.44;10523865;28;2827;-79
2022/11/25 07:55:17;;;;;;;;;;;;;;;3.40;100.00;95705.28;10518192;28;2765;-77
2022/11/25 08:00:21;;;;;;;;;;;;;;;3.55;100.00;95705.63;10508115;28;1903;-78
2022/11/25 08:05:24;;;;;;;;;;;4.40;99.90;;;3.60;100.00;95712.91;10514362;28;2404;-82
2022/11/25 08:10:26;;;;;;;;;;;4.40;99.90;;;3.77;100.00;95719.16;10505992;28;2524;-77
2022/11/25 08:15:40;;;;;;;;;;;4.40;99.90;;;3.89;100.00;95708.50;10515079;28;3131;-80
2022/11/25 08:20:43;;;;;;;;;;;;;;;4.03;100.00;95697.38;10501131;28;2455;-78
2022/11/25 08:25:47;;;;;;;;;;;;;;;4.13;100.00;95707.41;10504006;28;2411;-79
2022/11/25 08:30:52;;;;;;;;;;;;;;;4.34;100.00;95693.50;10504578;28;2467;-81
2022/11/25 08:35:56;;;;;;;;;;;;;;;4.47;100.00;95694.28;10545294;27;3252;-82
2022/11/25 08:41:10;;;;;;;;;;;;;;;4.59;100.00;95695.84;10507951;28;2458;-81
2022/11/25 08:46:15;;;;;;;;;;;;;;;4.61;100.00;95703.59;10500932;28;2567;-77
2022/11/25 08:51:18;;;;;;;;;;;5.50;99.90;;;4.87;100.00;95721.66;10509164;28;2675;-77
2022/11/25 08:56:22;;;;;;;;;;;5.40;99.90;;;4.95;100.00;95741.75;10503890;28;2495;-77
2022/11/25 09:01:28;;;;;;;;;;;;;;;5.18;100.00;95750.69;10509883;28;2428;-78
2022/11/25 09:06:31;;;;;;;;;;;;;;;5.21;100.00;95756.34;10529745;28;2643;-77
2022/11/25 09:11:35;;;;;;;;;;;;;;;5.33;100.00;95762.41;10518632;28;2394;-78
2022/11/25 09:16:38;;;;;;;;;;;;;;;5.42;100.00;95773.50;10490181;28;2852;-79
2022/11/25 09:21:41;;;;;;;;;;;;;;;5.25;100.00;95773.47;10523128;28;2475;-79
2022/11/25 09:26:44;;;;;;;;;;;;;;;4.91;100.00;95777.13;10511754;28;2497;-77
2022/11/25 09:31:48;;;;;;;;;;;;;;;4.89;100.00;95780.81;10515608;28;2419;-78
2022/11/25 09:36:57;;;;;;;;;;;;;;;4.91;100.00;95777.13;10512966;28;2509;-79
2022/11/25 09:47:23;;;;;;;;;;;;;;;4.89;100.00;95764.81;10534455;28;2388;-77
2022/11/25 09:52:27;;;;;;;;;;;;;;;4.93;100.00;95769.69;10514923;28;2440;-77
2022/11/25 09:57:30;;;;;;;;;;;;;;;5.02;100.00;95773.56;10507148;28;2460;-77
2022/11/25 10:02:33;;;;;;;;;;;;;;;5.03;100.00;95769.91;10519845;28;2556;-78
2022/11/25 10:07:36;;;;;;;;;;;;;;;5.09;100.00;95766.25;10508118;28;2471;-78
2022/11/25 10:12:39;;;;;;;;;;;;;;;5.10;100.00;95773.22;10514783;28;2839;-78
2022/11/25 10:17:43;;;;;;;;;;;;;;;5.22;100.00;95768.63;10501202;28;2574;-78
2022/11/25 10:22:46;;;;;;;;;;;;;;;5.24;100.00;95777.19;10514103;28;2595;-78
2022/11/25 10:27:49;;;;;;;;;;;;;;;5.38;100.00;95770.50;10513794;28;2412;-75
2022/11/25 10:32:53;;;;;;;;;;;;;;;5.47;100.00;95765.59;10512420;28;2791;-75
2022/11/25 10:38:04;;;;;;;;;;;;;;;5.57;100.00;95770.28;10516473;28;2480;-80
2022/11/25 10:43:07;;;;;;;;;;;;;;;5.77;100.00;95775.94;10510687;28;2491;-77
2022/11/25 10:48:10;;;;;;;;;;;;;;;5.79;100.00;95779.19;10515754;28;2503;-77
2022/11/25 10:53:13;;;;;;;;;;;;;;;6.10;100.00;95768.97;10517201;28;2566;-77
2022/11/25 10:58:22;;;;;;;;;;;;;;;6.16;100.00;95760.00;10524458;28;2400;-76
2022/11/25 11:03:26;;;;;;;;;;;;;;;6.25;100.00;95761.19;10518919;28;2508;-77
2022/11/25 11:08:29;;;;;;;;;;;;;;;6.33;100.00;95758.09;10508324;28;2522;-77
2022/11/25 11:13:32;;;;;;;;;;;;;;;6.46;100.00;95757.72;10510999;28;2414;-77
2022/11/25 11:18:35;;;;;;;;;;;;;;;6.87;100.00;95749.38;10509097;28;2436;-77
2022/11/25 11:23:38;;;;;;;;;;;;;;;6.87;100.00;95755.56;10514473;28;2394;-77
2022/11/25 11:28:43;;;;;;;;;;;;;;;7.31;100.00;95752.78;10495990;28;2435;-77
2022/11/25 11:33:47;;;;;;;;;;;;;;;7.46;100.00;95747.59;10508862;28;2779;-76
2022/11/25 11:38:50;;;;;;;;;;;;;;;7.18;100.00;95753.19;10510583;28;2411;-79
2022/11/25 11:43:55;;;;;;;;;;;;;;;6.98;100.00;95743.09;10509223;28;2477;-79
2022/11/25 11:48:58;;;;;;;;;;;;;;;7.17;100.00;95749.72;10514522;28;2138;-78
2022/11/25 11:54:01;;;;;;;;;;;;;;;7.66;100.00;95752.31;10515357;28;2544;-70
2022/11/25 11:59:04;;;;;;;;;;;8.30;99.90;;;8.33;100.00;95743.66;10521527;28;2489;-70
2022/11/25 12:04:07;;;;;;;;;;;8.60;99.90;;;8.48;100.00;95745.63;10504791;28;2422;-73
2022/11/25 12:09:10;;;;;;;;;;;9.00;99.90;;;8.13;100.00;95744.31;10506560;28;2492;-70
2022/11/25 12:14:20;;;;;;;;;;;9.10;99.90;;;7.95;100.00;95739.41;10510948;28;2530;-72
2022/11/25 12:19:22;;;;;;;;;;;8.90;99.90;;;7.70;100.00;95745.38;10507493;28;2426;-71
2022/11/25 12:24:25;;;;;;;;;;;8.80;99.90;;;7.75;100.00;95745.41;10516663;28;2561;-70
2022/11/25 12:29:36;;;;;;;;;;;8.70;99.90;;;7.74;100.00;95741.13;10510142;28;2556;-70
2022/11/25 12:34:39;;;;;;;;;;;8.70;99.90;;;8.05;100.00;95741.34;10511123;28;2440;-71
2022/11/25 12:39:42;;;;;;;;;;;8.80;99.90;;;8.46;100.00;95737.06;10505764;28;2439;-71
2022/11/25 12:44:45;;;;;;;;;;;9.00;99.90;;;9.14;100.00;95727.09;10504963;28;2472;-72
2022/11/25 12:49:48;;;;;;;;;;;9.50;99.90;;;9.72;100.00;95727.66;10514117;28;2518;-70
2022/11/25 12:54:50;;;;;;;;;;;9.80;99.90;;;9.86;100.00;95729.81;10508086;28;2432;-71
2022/11/25 12:59:53;;;;;;;;;;;11.40;99.90;;;9.70;100.00;95737.06;10519048;28;2567;-70
2022/11/25 13:05:16;;;;;;;;;;;10.50;99.90;;;9.82;100.00;95736.81;10505857;28;2529;-69
2022/11/25 13:10:39;;;;;;;;;;;10.30;99.90;;;10.03;96.41;95730.34;10505511;28;2779;-69
2022/11/25 13:15:42;;;;;;;;;;;10.90;99.90;;;9.95;100.00;95730.88;10505061;28;2492;-72
2022/11/25 13:20:45;;;;;;;;;;;10.90;99.90;;;10.02;100.00;95736.78;10500554;28;2325;-76
2022/11/25 13:25:48;;;;;;;;;;;10.80;99.90;;;9.97;100.00;95740.28;10508399;28;2443;-70
2022/11/25 13:30:50;;;;;;;;;;;10.70;99.90;;;9.74;100.00;95740.84;10505702;28;2490;-69
2022/11/25 13:35:53;;;;;;;;;;;10.70;99.90;;;9.60;100.00;95747.78;10514386;28;2428;-70
2022/11/25 13:40:56;;;;;;;;;;;10.50;99.90;;;9.49;100.00;95755.06;10511479;28;2472;-71
2022/11/25 13:45:59;;;;;;;;;;;10.40;99.90;;;9.56;100.00;95752.09;10493485;28;2614;-72
2022/11/25 13:51:01;;;;;;;;;;;10.40;99.90;;;9.44;100.00;95755.84;10515974;28;2446;-71
2022/11/25 13:56:13;;;;;;;;;;;10.30;99.90;;;9.56;100.00;95755.59;10520018;28;2479;-71
2022/11/25 14:01:15;;;;;;;;;;;10.30;99.90;;;9.58;100.00;95768.75;10516361;28;2484;-71
2022/11/25 14:06:18;;;;;;;;;;;10.30;99.90;;;9.45;100.00;95756.66;10520945;28;2505;-72
2022/11/25 14:11:21;;;;;;;;;;;10.30;99.90;;;9.28;100.00;95780.22;10510853;28;2491;-76
2022/11/25 14:16:23;;;;;;;;;;;10.30;99.90;;;9.22;100.00;95776.72;10503535;28;2472;-71
2022/11/25 14:21:26;;;;;;;;;;;10.30;99.90;;;9.19;100.00;95794.16;10509665;28;2491;-70
2022/11/25 14:26:29;;;;;;;;;;;10.20;99.90;;;9.11;100.00;95797.34;10520059;28;2791;-70
2022/11/25 14:31:51;;;;;;;;;;;10.20;99.90;;;9.09;100.00;95809.41;10522920;28;2527;-70
2022/11/25 14:36:54;;;;;;;;;;;10.10;99.90;;;8.81;100.00;95829.41;10520995;28;2498;-70
2022/11/25 14:41:56;;;;;;;;;;;10.00;99.90;;;8.33;100.00;95842.75;10505620;28;2484;-70
2022/11/25 14:46:59;;;;;;;;;;;9.70;99.90;;;7.96;100.00;95856.13;10522548;28;2434;-73
2022/11/25 14:52:03;;;;;;;;;;;9.30;99.90;;;7.67;100.00;95865.47;10526198;28;2442;-70
2022/11/25 14:57:05;;;;;;;;;;;9.00;99.90;;;7.43;100.00;95884.47;10510681;28;2495;-73
2022/11/25 15:02:08;;;;;;;;;;;8.70;99.90;;;7.24;100.00;95894.69;10518818;28;2537;-70
2022/11/25 15:07:11;;;;;;;;;;;8.50;99.90;;;7.18;100.00;95906.38;10505207;28;2435;-69
2022/11/25 15:12:16;;;;;;;;;;;8.30;99.90;;;7.01;100.00;95919.00;10517567;28;2454;-69
2022/11/25 15:17:18;;;;;;;;;;;8.20;99.90;;;6.83;100.00;95921.97;10511510;28;2427;-71
2022/11/25 15:22:21;;;;;;;;;;;8.10;99.90;;;6.80;100.00;95920.56;10518278;28;2452;-75
2022/11/25 15:27:27;;;;;;;;;;;7.90;99.90;;;6.82;100.00;95936.38;10517366;28;2476;-73
2022/11/25 15:32:30;;;;;;;;;;;7.90;99.90;;;6.74;100.00;95951.78;10522135;28;2427;-75
2022/11/25 15:37:33;;;;;;;;;;;7.80;99.90;;;6.74;100.00;95959.78;10527432;28;2455;-70
2022/11/25 15:42:35;;;;;;;;;;;7.80;99.90;;;6.75;100.00;95969.44;10515817;28;2830;-69
2022/11/25 15:47:38;;;;;;;;;;;7.80;99.90;;;6.63;100.00;95968.69;10526183;28;2442;-69
2022/11/25 15:52:41;;;;;;;;;;;7.70;99.90;;;6.63;100.00;95966.03;10521706;28;2506;-69
2022/11/25 15:57:44;;;;;;;;;;;7.70;99.90;;;6.64;100.00;95973.00;10514092;28;2510;-69
2022/11/25 16:02:47;;;;;;;;;;;7.60;99.90;;;6.65;100.00;95979.13;10493975;28;2585;-74
2022/11/25 16:07:50;;;;;;;;;;;7.60;99.90;;;6.57;100.00;95988.38;10510808;28;2523;-72
2022/11/25 16:12:53;;;;;;;;;;;7.60;99.90;;;6.58;100.00;95989.19;10507488;28;2475;-71
2022/11/25 16:17:56;;;;;;;;;;;7.60;99.90;;;6.56;100.00;95996.63;10493125;28;2477;-72
2022/11/25 16:23:19;;;;;;;;;;;7.60;99.90;;;6.49;100.00;96002.94;10509489;28;2545;-74
2022/11/25 16:28:21;;;;;;;;;;;7.50;99.90;;;6.41;100.00;96010.53;10509764;28;2410;-72
2022/11/25 16:33:24;;;;;;;;;;;7.50;99.90;;;6.38;100.00;96011.81;10508190;28;2627;-71
2022/11/25 16:38:27;;;;;;;;;;;7.50;99.90;;;6.36;100.00;96015.78;10515383;28;2451;-71
2022/11/25 16:43:30;;;;;;;;;;;7.40;99.90;;;6.34;100.00;96024.03;10515683;28;2834;-73
2022/11/25 16:48:32;;;;;;;;;;;7.30;99.90;;;6.39;100.00;96034.81;10505904;28;2505;-71
2022/11/25 16:53:35;;;;;;;;;;;7.40;99.90;;;6.41;100.00;96043.38;10515722;28;2689;-71
2022/11/25 16:58:40;;;;;;;;;;;7.40;99.90;;;6.34;100.00;96053.41;10506744;28;2530;-72
2022/11/25 17:03:43;;;;;;;;;;;7.30;99.90;;;6.30;100.00;96065.63;10496507;28;2464;-70
2022/11/25 17:08:45;;;;;;;;;;;7.40;99.90;;;6.27;100.00;96075.97;10506292;28;2436;-72
2022/11/25 17:13:49;;;;;;;;;;;7.30;99.90;;;6.26;100.00;96088.50;10502898;28;2466;-71
2022/11/25 17:18:54;;;;;;;;;;;7.30;99.90;;;6.23;100.00;96092.47;10498247;28;2559;-72
2022/11/25 17:23:57;;;;;;;;;;;7.20;99.90;;;6.23;100.00;96103.16;10498798;28;2414;-74
2022/11/25 17:28:59;;;;;;;;;;;7.30;99.90;;;6.23;100.00;96111.16;10541884;28;2554;-72
2022/11/25 17:34:02;;;;;;;;;;;7.20;99.90;;;6.15;100.00;96118.72;10520510;28;2351;-74
2022/11/25 17:39:04;;;;;;;;;;;7.20;99.90;;;6.05;100.00;96130.00;10527373;28;2541;-72
2022/11/25 17:44:07;;;;;;;;;;;7.10;99.90;;;6.12;100.00;96145.88;10498615;28;2480;-70
2022/11/25 17:49:10;;;;;;;;;;;7.10;99.90;;;6.06;100.00;96142.28;10510964;28;2459;-70
2022/11/25 17:54:12;;;;;;;;;;;7.10;99.90;;;6.07;100.00;96153.78;10503494;28;2479;-73
2022/11/25 17:59:16;;;;;;;;;;;7.10;99.90;;;6.08;100.00;96155.41;10511765;28;2533;-72
2022/11/25 18:04:18;;;;;;;;;;;7.10;99.90;;;6.08;100.00;96158.06;10511797;28;2426;-74
2022/11/25 18:09:21;;;;;;;;;;;7.10;99.90;;;6.04;100.00;96171.06;10505208;28;2419;-72
2022/11/25 18:14:24;;;;;;;;;;;7.10;99.90;;;6.09;100.00;96178.38;10507233;28;2551;-72
2022/11/25 18:19:26;;;;;;;;;;;7.00;99.90;;;5.97;100.00;96184.53;10515213;28;2501;-71
2022/11/25 18:24:29;;;;;;;;;;;7.00;99.90;;;5.87;100.00;96180.81;10519925;28;2510;-72
2022/11/25 18:29:32;;;;;;;;;;;6.90;99.90;;;5.89;100.00;96182.19;10510324;28;2425;-72
2022/11/25 18:34:35;;;;;;;;;;;6.90;99.90;;;5.78;100.00;96182.19;10510936;28;2525;-71
2022/11/25 18:39:48;;;;;;;;;;;6.90;99.90;;;5.81;100.00;96193.22;10512700;28;2500;-73
2022/11/25 18:44:51;;;;;;;;;;;6.80;99.90;;;5.82;100.00;96189.50;10494134;28;2553;-73
2022/11/25 18:49:54;;;;;;;;;;;6.80;99.90;;;5.73;100.00;96204.25;10491931;28;2647;-75
2022/11/25 18:54:58;;;;;;;;;;;6.80;99.90;;;5.72;100.00;96199.94;10497908;28;2494;-72
2022/11/25 19:00:00;;;;;;;;;;;6.80;99.90;;;5.65;100.00;96210.72;10511598;28;2529;-73
2022/11/25 19:05:25;;;;;;;;;;;6.80;99.90;;;5.71;100.00;96219.66;10518754;28;2484;-71
2022/11/25 19:10:30;;;;;;;;;;;6.80;99.90;;;5.60;100.00;96221.31;10509822;28;2534;-71
2022/11/25 19:15:36;;;;;;;;;;;6.70;99.90;;;5.67;100.00;96229.19;10490033;28;2492;-75
2022/11/25 19:20:39;;;;;;;;;;;6.70;99.90;;;5.54;100.00;96234.75;10511811;28;2421;-74
2022/11/25 19:25:42;;;;;;;;;;;6.70;99.90;;;5.54;100.00;96250.75;10520583;28;2517;-74
2022/11/25 19:30:44;;;;;;;;;;;6.60;99.90;;;5.53;100.00;96262.44;10502300;28;2531;-76
2022/11/25 19:35:47;;;;;;;;;;;6.60;99.90;;;5.50;100.00;96262.91;10510427;28;2424;-72
2022/11/25 19:40:50;;;;;;;;;;;6.70;99.90;;;5.37;100.00;96275.41;10510728;28;2452;-71
2022/11/25 19:45:52;;;;;;;;;;;6.50;99.90;;;5.24;100.00;96283.59;10492213;28;2432;-72
2022/11/25 19:50:58;;;;;;;;;;;6.50;99.90;;;5.12;100.00;96301.41;10511480;28;2473;-71
2022/11/25 19:56:06;;;;;;;;;;;6.30;99.90;;;5.21;100.00;96305.34;10515608;28;2511;-76
2022/11/25 20:01:09;;;;;;;;;;;6.20;99.90;;;5.13;100.00;96317.16;10505336;28;2497;-70
2022/11/25 20:06:16;;;;;;;;;;;6.20;99.90;;;5.06;100.00;96312.94;10504279;28;2519;-72
2022/11/25 20:11:19;;;;;;;;;;;6.20;99.90;;;4.95;100.00;96337.69;10501034;28;2437;-73
2022/11/25 20:16:22;;;;;;;;;;;6.20;99.90;;;4.83;100.00;96337.63;10512377;28;2451;-73
2022/11/25 20:21:25;;;;;;;;;;;6.00;99.90;;;4.70;100.00;96341.25;10500491;28;2445;-72
2022/11/25 20:26:27;;;;;;;;;;;6.00;99.90;;;4.60;100.00;96351.63;10508604;28;2476;-71
2022/11/25 20:31:31;;;;;;;;;;;5.80;99.90;;;4.46;100.00;96361.59;10514594;28;2437;-72
2022/11/25 20:36:37;;;;;;;;;;;5.70;99.90;;;4.45;100.00;96378.59;10504721;28;2427;-72
2022/11/25 20:41:40;;;;;;;;;;;5.40;99.90;;;4.43;100.00;96379.84;10508843;28;2426;-71
2022/11/25 20:46:43;;;;;;;;;;;5.60;99.90;;;4.45;100.00;96391.91;10503489;28;2533;-72
2022/11/25 20:51:47;;;;;;;;;;;5.60;99.90;;;4.49;100.00;96408.25;10511265;28;2511;-71
2022/11/25 20:56:50;;;;;;;;;;;5.60;99.90;;;4.54;100.00;96408.41;10486650;28;2571;-72
2022/11/25 21:01:53;;;;;;;;;;;5.60;99.90;;;4.46;100.00;96419.34;10504350;28;2425;-72
2022/11/25 21:06:56;;;;;;;;;;;5.60;99.90;;;4.49;100.00;96422.38;10510945;28;2443;-70
2022/11/25 21:11:59;;;;;;;;;;;5.50;99.90;;;4.61;100.00;96423.28;10511063;28;2482;-71
2022/11/25 21:17:02;;;;;;;;;;;5.60;99.90;;;4.72;100.00;96434.25;10516420;28;2612;-70
2022/11/25 21:22:05;;;;;;;;;;;5.70;99.90;;;4.85;100.00;96445.59;10510371;28;2481;-71
2022/11/25 21:27:08;;;;;;;;;;;5.80;99.90;;;4.85;100.00;96442.13;10516934;28;2503;-72
2022/11/25 21:32:15;;;;;;;;;;;5.80;99.90;;;4.96;100.00;96453.88;10516276;28;2448;-76
2022/11/25 21:37:18;;;;;;;;;;;5.80;99.90;;;4.98;100.00;96455.28;10515021;28;2504;-71
2022/11/25 21:42:21;;;;;;;;;;;5.90;99.90;;;5.03;100.00;96454.63;10518334;28;2513;-71
2022/11/25 21:47:24;;;;;;;;;;;6.00;99.90;;;5.06;100.00;96456.84;10522103;28;2518;-73
2022/11/25 21:52:26;;;;;;;;;;;6.10;99.90;;;5.03;100.00;96466.13;10518619;28;2490;-73
2022/11/25 21:57:29;;;;;;;;;;;6.10;99.90;;;5.00;100.00;96471.88;10514591;28;2463;-71
2022/11/25 22:02:33;;;;;;;;;;;6.20;99.90;;;5.05;100.00;96472.03;10504769;28;2462;-71
2022/11/25 22:07:35;;;;;;;;;;;5.80;99.90;;;5.08;100.00;96476.09;10508138;28;2473;-71
2022/11/25 22:12:39;;;;;;;;;;;6.10;99.90;;;5.10;100.00;96495.34;10515750;28;2475;-72
2022/11/25 22:17:43;;;;;;;;;;;6.10;99.90;;;5.21;100.00;96499.13;10512950;28;2456;-75
2022/11/25 22:22:46;;;;;;;;;;;6.20;99.90;;;5.19;100.00;96504.66;10527442;28;2530;-73
2022/11/25 22:27:49;;;;;;;;;;;6.10;99.90;;;5.25;100.00;96503.78;10515484;28;2803;-71
2022/11/25 22:32:52;;;;;;;;;;;6.30;99.90;;;5.26;100.00;96516.06;10495516;28;2473;-71
2022/11/25 22:37:54;;;;;;;;;;;6.30;99.90;;;5.31;100.00;96518.91;10514375;28;2427;-74
2022/11/25 22:42:59;;;;;;;;;;;6.30;99.90;;;5.35;100.00;96516.63;10512215;28;2496;-72
2022/11/25 22:48:02;;;;;;;;;;;6.30;99.90;;;5.40;100.00;96522.06;10525574;28;2608;-71
2022/11/25 22:53:05;;;;;;;;;;;6.30;99.90;;;5.37;100.00;96522.53;10520125;28;2511;-75
2022/11/25 22:58:07;;;;;;;;;;;6.40;99.90;;;5.42;100.00;96520.81;10510598;28;2400;-76
2022/11/25 23:03:10;;;;;;;;;;;6.40;99.90;;;5.37;100.00;96523.34;10511858;28;2522;-73
2022/11/25 23:08:13;;;;;;;;;;;6.30;99.90;;;5.36;100.00;96526.25;10519831;28;2455;-70
2022/11/25 23:13:17;;;;;;;;;;;6.30;99.90;;;5.38;100.00;96527.63;10508729;28;2607;-72
2022/11/25 23:18:20;;;;;;;;;;;6.40;99.90;;;5.37;100.00;96526.00;10506420;28;2438;-70
2022/11/25 23:23:25;;;;;;;;;;;6.40;99.90;;;5.34;100.00;96537.13;10516186;28;2496;-71
2022/11/25 23:28:28;;;;;;;;;;;6.40;99.90;;;5.34;100.00;96533.63;10516496;28;2469;-69
2022/11/25 23:33:31;;;;;;;;;;;6.40;99.90;;;5.33;100.00;96527.47;10520630;28;2535;-70
2022/11/25 23:38:34;;;;;;;;;;;6.30;99.90;;;5.33;100.00;96538.13;10522079;28;2446;-69
2022/11/25 23:43:37;;;;;;;;;;;6.40;99.90;;;5.29;100.00;96542.31;10516478;28;2463;-70
2022/11/25 23:48:40;;;;;;;;;;;6.20;99.90;;;5.28;100.00;96546.00;10513353;28;2467;-69
2022/11/25 23:53:42;;;;;;;;;;;6.30;99.90;;;5.26;100.00;96548.06;10512209;28;2429;-70
2022/11/25 23:58:45;;;;;;;;;;;6.30;99.90;;;5.20;100.00;96554.28;10506443;28;2550;-71
